createdAt,value
2023-01-30T00:01:29.164Z,3.10
2023-01-30T00:03:56.392Z,3.10
2023-01-30T00:06:24.459Z,3.10
2023-01-30T00:08:52.026Z,3.10
2023-01-30T00:11:20.047Z,3.20
2023-01-30T00:13:48.569Z,3.20
2023-01-30T00:16:15.866Z,3.20
2023-01-30T00:18:43.194Z,3.30
2023-01-30T00:21:13.003Z,3.30
2023-01-30T00:23:40.013Z,3.30
2023-01-30T00:26:08.302Z,3.40
2023-01-30T00:28:35.754Z,3.40
2023-01-30T00:31:02.828Z,3.40
2023-01-30T00:33:30.223Z,3.40
2023-01-30T00:35:58.244Z,3.40
2023-01-30T00:38:25.403Z,3.40
2023-01-30T00:40:52.404Z,3.40
2023-01-30T00:43:39.417Z,3.50
2023-01-30T00:46:33.598Z,3.50
2023-01-30T00:49:00.577Z,3.50
2023-01-30T00:51:27.475Z,3.60
2023-01-30T00:53:54.476Z,3.60
2023-01-30T00:56:21.483Z,3.60
2023-01-30T00:58:48.469Z,3.60
2023-01-30T01:01:15.389Z,3.70
2023-01-30T01:03:42.277Z,3.70
2023-01-30T01:06:09.250Z,3.70
2023-01-30T01:08:36.155Z,3.80
2023-01-30T01:11:03.103Z,3.80
2023-01-30T01:13:30.024Z,3.80
2023-01-30T01:15:57.114Z,3.90
2023-01-30T01:18:24.043Z,3.90
2023-01-30T01:20:51.012Z,3.90
2023-01-30T01:23:17.885Z,4.00
2023-01-30T01:25:45.211Z,4.00
2023-01-30T01:28:12.192Z,4.00
2023-01-30T01:30:39.364Z,4.00
2023-01-30T01:33:08.758Z,4.00
2023-01-30T01:35:40.133Z,4.00
2023-01-30T01:38:07.139Z,4.00
2023-01-30T01:40:52.634Z,4.00
2023-01-30T01:43:22.292Z,4.00
2023-01-30T01:46:00.307Z,4.00
2023-01-30T01:48:49.143Z,4.00
2023-01-30T01:51:36.895Z,4.00
2023-01-30T01:54:16.145Z,4.00
2023-01-30T01:56:45.915Z,4.00
2023-01-30T01:59:28.401Z,4.00
2023-01-30T02:02:00.343Z,4.00
2023-01-30T02:04:54.175Z,4.00
2023-01-30T02:07:22.276Z,4.00
2023-01-30T02:09:51.736Z,3.90
2023-01-30T02:12:18.800Z,3.90
2023-01-30T02:14:46.093Z,3.90
2023-01-30T02:17:13.023Z,3.90
2023-01-30T02:19:55.736Z,3.90
2023-01-30T02:22:45.613Z,3.90
2023-01-30T02:26:04.608Z,4.00
2023-01-30T02:29:10.425Z,4.00
2023-01-30T02:31:50.943Z,4.00
2023-01-30T02:34:26.308Z,4.00
2023-01-30T02:37:36.434Z,4.00
2023-01-30T02:40:41.231Z,4.10
2023-01-30T02:43:46.091Z,4.10
2023-01-30T02:46:19.876Z,4.10
2023-01-30T02:49:09.880Z,4.10
2023-01-30T02:51:38.820Z,4.10
2023-01-30T02:54:07.892Z,4.10
2023-01-30T02:56:57.572Z,4.10
2023-01-30T02:59:34.957Z,4.20
2023-01-30T03:02:28.796Z,4.20
2023-01-30T03:05:42.996Z,4.20
2023-01-30T03:08:33.222Z,4.20
2023-01-30T03:11:08.636Z,4.20
2023-01-30T03:14:01.366Z,4.30
2023-01-30T03:16:36.896Z,4.30
2023-01-30T03:19:07.187Z,4.30
2023-01-30T03:21:34.146Z,4.30
2023-01-30T03:24:01.039Z,4.30
2023-01-30T03:26:31.892Z,4.40
2023-01-30T03:28:59.820Z,4.40
2023-01-30T03:31:27.178Z,4.40
2023-01-30T03:33:54.190Z,4.40
2023-01-30T03:36:24.139Z,4.50
2023-01-30T03:38:55.214Z,4.50
2023-01-30T03:41:22.275Z,4.50
2023-01-30T03:43:50.520Z,4.50
2023-01-30T03:46:17.433Z,4.50
2023-01-30T03:48:44.338Z,4.50
2023-01-30T03:51:17.049Z,4.50
2023-01-30T03:53:49.476Z,4.50
2023-01-30T03:56:16.424Z,4.50
2023-01-30T03:58:45.848Z,4.50
2023-01-30T04:01:12.757Z,4.50
2023-01-30T04:03:39.717Z,4.60
2023-01-30T04:06:07.021Z,4.60
2023-01-30T04:08:34.711Z,4.60
2023-01-30T04:11:02.901Z,4.60
2023-01-30T04:13:29.908Z,4.60
2023-01-30T04:16:17.457Z,4.70
2023-01-30T04:18:44.441Z,4.70
2023-01-30T04:21:12.209Z,4.70
2023-01-30T04:23:39.408Z,4.70
2023-01-30T04:26:07.043Z,4.60
2023-01-30T04:28:33.914Z,4.60
2023-01-30T04:31:01.186Z,4.60
2023-01-30T04:33:30.423Z,4.70
2023-01-30T04:36:01.582Z,4.70
2023-01-30T04:38:34.391Z,4.70
2023-01-30T04:41:03.525Z,4.70
2023-01-30T04:43:34.013Z,4.70
2023-01-30T04:46:01.872Z,4.70
2023-01-30T04:48:31.490Z,4.70
2023-01-30T04:51:01.345Z,4.70
2023-01-30T04:53:28.279Z,4.70
2023-01-30T04:55:55.258Z,4.70
2023-01-30T04:58:22.372Z,4.70
2023-01-30T05:00:51.546Z,4.70
2023-01-30T05:03:19.224Z,4.70
2023-01-30T05:05:49.417Z,4.80
2023-01-30T05:08:17.156Z,4.80
2023-01-30T05:10:47.974Z,4.80
2023-01-30T05:13:16.938Z,4.80
2023-01-30T05:15:45.562Z,4.80
2023-01-30T05:18:12.471Z,4.80
2023-01-30T05:20:42.009Z,4.80
2023-01-30T05:23:08.915Z,4.80
2023-01-30T05:25:35.821Z,4.80
2023-01-30T05:28:03.471Z,4.90
2023-01-30T05:30:31.868Z,4.80
2023-01-30T05:33:00.251Z,4.90
2023-01-30T05:35:27.645Z,4.90
2023-01-30T05:37:59.398Z,4.90
2023-01-30T05:40:31.310Z,4.90
2023-01-30T05:43:00.126Z,4.90
2023-01-30T05:45:27.545Z,5.00
2023-01-30T05:48:01.525Z,5.00
2023-01-30T05:50:29.187Z,5.00
2023-01-30T05:52:58.712Z,5.00
2023-01-30T05:55:25.726Z,5.10
2023-01-30T05:57:55.131Z,5.10
2023-01-30T06:00:23.222Z,5.10
2023-01-30T06:02:50.170Z,5.10
2023-01-30T06:05:17.385Z,5.10
2023-01-30T06:07:44.643Z,5.20
2023-01-30T06:10:11.919Z,5.20
2023-01-30T06:12:38.856Z,5.20
2023-01-30T06:15:06.342Z,5.30
2023-01-30T06:17:33.297Z,5.30
2023-01-30T06:20:00.295Z,5.30
2023-01-30T06:22:27.349Z,5.30
2023-01-30T06:24:54.230Z,5.30
2023-01-30T06:27:21.203Z,5.40
2023-01-30T06:29:48.119Z,5.40
2023-01-30T06:32:15.447Z,5.50
2023-01-30T06:34:42.492Z,5.50
2023-01-30T06:37:09.556Z,5.50
2023-01-30T06:39:36.499Z,5.50
2023-01-30T06:42:03.612Z,5.50
2023-01-30T06:44:30.564Z,5.60
2023-01-30T06:46:57.541Z,5.60
2023-01-30T06:49:24.771Z,5.70
2023-01-30T06:51:51.684Z,5.70
2023-01-30T06:54:18.655Z,5.70
2023-01-30T06:56:45.515Z,5.70
2023-01-30T06:59:12.429Z,5.70
2023-01-30T07:01:39.916Z,5.70
2023-01-30T07:04:06.920Z,5.70
2023-01-30T07:06:34.021Z,5.80
2023-01-30T07:09:00.906Z,5.90
2023-01-30T07:11:28.290Z,5.90
2023-01-30T07:13:55.177Z,6.00
2023-01-30T07:16:28.777Z,6.00
2023-01-30T07:18:58.558Z,6.00
2023-01-30T07:21:27.438Z,6.00
2023-01-30T07:23:54.561Z,6.10
2023-01-30T07:26:22.267Z,6.10
2023-01-30T07:28:49.196Z,6.10
2023-01-30T07:31:16.460Z,6.10
2023-01-30T07:33:43.768Z,6.10
2023-01-30T07:36:10.681Z,6.10
2023-01-30T07:38:37.634Z,6.20
2023-01-30T07:41:04.731Z,6.20
2023-01-30T07:43:31.670Z,5.70
2023-01-30T07:46:00.502Z,5.60
2023-01-30T07:48:27.364Z,5.70
2023-01-30T07:50:57.186Z,5.80
2023-01-30T07:53:24.479Z,5.80
2023-01-30T07:55:51.401Z,5.90
2023-01-30T07:58:18.374Z,5.90
2023-01-30T08:00:45.477Z,5.90
2023-01-30T08:03:14.726Z,5.90
2023-01-30T08:05:41.609Z,6.00
2023-01-30T08:08:08.701Z,6.10
2023-01-30T08:10:35.630Z,6.10
2023-01-30T08:13:02.797Z,6.00
2023-01-30T08:15:31.675Z,6.00
2023-01-30T08:17:59.221Z,5.90
2023-01-30T08:20:27.405Z,5.90
2023-01-30T08:22:55.215Z,5.90
2023-01-30T08:25:22.819Z,5.80
2023-01-30T08:27:50.005Z,5.90
2023-01-30T08:30:18.172Z,5.80
2023-01-30T08:32:45.500Z,5.80
2023-01-30T08:35:13.341Z,5.80
2023-01-30T08:37:41.558Z,5.90
2023-01-30T08:40:09.600Z,6.00
2023-01-30T08:42:36.538Z,6.00
2023-01-30T08:45:03.703Z,6.10
2023-01-30T08:47:31.222Z,6.10
2023-01-30T08:49:58.178Z,6.10
2023-01-30T08:52:25.087Z,6.10
2023-01-30T08:54:51.976Z,6.20
2023-01-30T08:57:19.291Z,6.20
2023-01-30T08:59:46.274Z,6.20
2023-01-30T09:02:13.637Z,6.20
2023-01-30T09:04:40.562Z,6.10
2023-01-30T09:07:07.502Z,6.10
2023-01-30T09:09:34.835Z,6.20
2023-01-30T09:12:01.960Z,6.20
2023-01-30T09:14:28.943Z,6.30
2023-01-30T09:16:55.983Z,6.40
2023-01-30T09:19:27.494Z,6.40
2023-01-30T09:21:55.713Z,6.40
2023-01-30T09:24:26.943Z,6.40
2023-01-30T09:26:59.076Z,6.50
2023-01-30T09:29:27.584Z,6.70
2023-01-30T09:31:59.300Z,6.70
2023-01-30T09:34:28.941Z,6.60
2023-01-30T09:36:57.050Z,6.60
2023-01-30T09:39:23.931Z,6.50
2023-01-30T09:42:27.994Z,6.50
2023-01-30T09:45:21.952Z,6.50
2023-01-30T09:48:12.716Z,6.40
2023-01-30T09:50:53.984Z,6.50
2023-01-30T09:54:00.984Z,6.50
2023-01-30T09:56:28.463Z,6.50
2023-01-30T09:58:59.206Z,6.50
2023-01-30T10:02:01.424Z,6.50
2023-01-30T10:04:34.499Z,6.50
2023-01-30T10:07:51.906Z,6.50
2023-01-30T10:10:41.472Z,6.50
2023-01-30T10:13:33.529Z,6.60
2023-01-30T10:16:21.372Z,6.50
2023-01-30T10:18:48.280Z,6.80
2023-01-30T10:21:38.361Z,7.00
2023-01-30T10:24:39.844Z,7.20
2023-01-30T10:27:18.466Z,7.30
2023-01-30T10:29:52.662Z,7.20
2023-01-30T10:32:29.023Z,7.10
2023-01-30T10:35:05.413Z,7.00
2023-01-30T10:38:12.664Z,7.00
2023-01-30T10:41:08.818Z,7.00
2023-01-30T10:43:45.984Z,7.00
2023-01-30T10:47:03.436Z,6.90
2023-01-30T10:49:56.844Z,6.90
2023-01-30T10:53:10.119Z,6.80
2023-01-30T10:55:49.644Z,6.90
2023-01-30T10:58:59.690Z,6.90
2023-01-30T11:01:37.551Z,6.90
2023-01-30T11:04:14.272Z,6.90
2023-01-30T11:06:42.649Z,6.90
2023-01-30T11:09:10.013Z,6.90
2023-01-30T11:11:54.464Z,6.90
2023-01-30T11:14:21.404Z,7.00
2023-01-30T11:16:59.917Z,6.90
2023-01-30T11:19:34.582Z,6.90
2023-01-30T11:22:04.126Z,6.90
2023-01-30T11:24:40.286Z,7.00
2023-01-30T11:27:15.825Z,6.90
2023-01-30T11:29:42.822Z,6.90
2023-01-30T11:32:20.084Z,6.90
2023-01-30T11:35:27.714Z,6.90
2023-01-30T11:37:57.401Z,6.90
2023-01-30T11:40:28.245Z,6.90
2023-01-30T11:43:13.366Z,6.80
2023-01-30T11:45:45.431Z,6.80
2023-01-30T11:48:33.959Z,6.80
2023-01-30T11:51:11.124Z,6.80
2023-01-30T11:53:49.225Z,6.80
2023-01-30T11:56:24.075Z,6.90
2023-01-30T11:58:58.906Z,6.90
2023-01-30T12:01:31.908Z,7.00
2023-01-30T12:03:59.796Z,7.00
2023-01-30T12:06:36.245Z,7.10
2023-01-30T12:09:04.104Z,7.30
2023-01-30T12:11:45.246Z,7.60
2023-01-30T12:14:38.079Z,7.80
2023-01-30T12:17:40.122Z,7.90
2023-01-30T12:20:51.315Z,7.90
2023-01-30T12:23:48.938Z,7.80
2023-01-30T12:26:45.761Z,7.70
2023-01-30T12:29:56.479Z,7.70
2023-01-30T12:32:27.555Z,7.70
2023-01-30T12:35:03.577Z,7.60
2023-01-30T12:38:01.304Z,7.60
2023-01-30T12:41:15.729Z,7.70
2023-01-30T12:44:24.199Z,7.80
2023-01-30T12:47:17.814Z,7.70
2023-01-30T12:49:57.435Z,7.80
2023-01-30T12:52:59.115Z,7.80
2023-01-30T12:55:42.228Z,7.90
2023-01-30T12:58:27.824Z,7.90
2023-01-30T13:01:07.352Z,7.90
2023-01-30T13:03:58.366Z,7.80
2023-01-30T13:07:05.376Z,7.50
2023-01-30T13:10:34.459Z,7.20
2023-01-30T13:13:42.445Z,7.00
2023-01-30T13:16:43.549Z,6.90
2023-01-30T13:19:40.397Z,7.00
2023-01-30T13:22:36.684Z,7.00
2023-01-30T13:25:38.958Z,7.10
2023-01-30T13:28:17.654Z,7.20
2023-01-30T13:30:46.859Z,7.30
2023-01-30T13:33:21.604Z,7.40
2023-01-30T13:36:11.256Z,7.40
2023-01-30T13:39:04.429Z,7.40
2023-01-30T13:41:38.352Z,7.40
2023-01-30T13:44:24.903Z,7.50
2023-01-30T13:46:55.556Z,7.60
2023-01-30T13:49:50.678Z,7.70
2023-01-30T13:53:07.347Z,7.60
2023-01-30T13:56:00.724Z,7.60
2023-01-30T13:59:04.122Z,7.70
2023-01-30T14:02:19.542Z,7.80
2023-01-30T14:04:54.499Z,7.80
2023-01-30T14:07:43.901Z,7.80
2023-01-30T14:10:17.960Z,7.80
2023-01-30T14:12:55.886Z,7.80
2023-01-30T14:15:26.225Z,7.90
2023-01-30T14:18:31.446Z,8.10
2023-01-30T14:21:25.041Z,8.10
2023-01-30T14:24:01.305Z,8.10
2023-01-30T14:27:05.113Z,7.90
2023-01-30T14:29:58.500Z,7.30
2023-01-30T14:32:55.819Z,6.70
2023-01-30T14:35:28.209Z,6.20
2023-01-30T14:38:19.857Z,5.80
2023-01-30T14:41:00.281Z,5.70
2023-01-30T14:43:59.406Z,5.60
2023-01-30T14:46:54.605Z,5.40
2023-01-30T14:49:29.574Z,5.20
2023-01-30T14:51:56.799Z,5.10
2023-01-30T14:54:41.847Z,5.10
2023-01-30T14:57:23.416Z,5.30
2023-01-30T15:00:14.950Z,5.60
2023-01-30T15:02:49.184Z,6.00
2023-01-30T15:05:21.417Z,6.10
2023-01-30T15:08:02.985Z,6.20
2023-01-30T15:10:50.039Z,6.30
2023-01-30T15:14:02.021Z,6.20
2023-01-30T15:17:09.962Z,5.80
2023-01-30T15:19:59.038Z,5.60
2023-01-30T15:23:04.336Z,5.50
2023-01-30T15:25:54.529Z,5.50
2023-01-30T15:29:12.286Z,5.60
2023-01-30T15:31:39.798Z,5.70
2023-01-30T15:34:20.530Z,5.80
2023-01-30T15:36:47.767Z,5.90
2023-01-30T15:39:23.929Z,6.00
2023-01-30T15:41:53.070Z,6.10
2023-01-30T15:45:03.766Z,6.30
2023-01-30T15:48:07.515Z,6.30
2023-01-30T15:50:34.753Z,6.40
2023-01-30T15:53:02.384Z,6.40
2023-01-30T15:55:38.341Z,6.40
2023-01-30T15:58:10.472Z,6.40
2023-01-30T16:00:41.208Z,6.40
2023-01-30T16:03:13.858Z,6.40
2023-01-30T16:05:51.340Z,6.40
2023-01-30T16:08:35.660Z,6.40
2023-01-30T16:11:02.928Z,6.40
2023-01-30T16:13:30.477Z,6.40
2023-01-30T16:16:13.635Z,6.40
2023-01-30T16:18:54.915Z,6.50
2023-01-30T16:21:26.106Z,6.50
2023-01-30T16:24:20.382Z,6.50
2023-01-30T16:26:51.230Z,6.50
2023-01-30T16:29:23.020Z,6.50
2023-01-30T16:31:52.850Z,6.40
2023-01-30T16:34:33.045Z,6.30
2023-01-30T16:37:21.781Z,6.40
2023-01-30T16:40:21.831Z,6.30
2023-01-30T16:43:02.001Z,6.20
2023-01-30T16:45:55.301Z,6.20
2023-01-30T16:48:33.150Z,6.10
2023-01-30T16:51:20.374Z,6.10
2023-01-30T16:53:52.792Z,6.00
2023-01-30T16:56:20.490Z,6.00
2023-01-30T16:58:51.865Z,6.00
2023-01-30T17:01:19.334Z,6.00
2023-01-30T17:04:01.786Z,6.10
2023-01-30T17:06:38.296Z,6.00
2023-01-30T17:09:26.998Z,6.00
2023-01-30T17:11:53.957Z,6.00
2023-01-30T17:14:26.139Z,6.00
2023-01-30T17:17:07.952Z,6.10
2023-01-30T17:19:36.139Z,6.00
2023-01-30T17:22:08.906Z,6.10
2023-01-30T17:24:36.381Z,6.10
2023-01-30T17:27:04.784Z,6.10
2023-01-30T17:29:42.385Z,6.10
2023-01-30T17:32:15.500Z,6.10
2023-01-30T17:34:42.712Z,6.10
2023-01-30T17:37:18.470Z,6.10
2023-01-30T17:39:45.642Z,6.10
2023-01-30T17:42:13.918Z,6.10
2023-01-30T17:44:41.110Z,6.10
2023-01-30T17:47:11.450Z,6.00
2023-01-30T17:49:38.606Z,6.00
2023-01-30T17:52:06.324Z,6.10
2023-01-30T17:54:33.179Z,6.10
2023-01-30T17:57:03.151Z,6.10
2023-01-30T17:59:30.470Z,6.20
2023-01-30T18:01:57.604Z,6.20
2023-01-30T18:04:24.674Z,6.20
2023-01-30T18:06:56.951Z,6.20
2023-01-30T18:09:25.303Z,6.10
2023-01-30T18:11:52.320Z,6.00
2023-01-30T18:14:19.529Z,6.00
2023-01-30T18:16:46.589Z,5.90
2023-01-30T18:19:15.700Z,5.90
2023-01-30T18:21:45.233Z,6.00
2023-01-30T18:24:13.192Z,6.00
2023-01-30T18:26:40.894Z,6.10
2023-01-30T18:29:09.828Z,6.10
2023-01-30T18:31:38.153Z,6.10
2023-01-30T18:34:05.601Z,6.10
2023-01-30T18:36:35.274Z,6.10
2023-01-30T18:39:02.672Z,6.10
2023-01-30T18:41:30.235Z,6.10
2023-01-30T18:44:02.222Z,6.10
2023-01-30T18:46:29.991Z,6.10
2023-01-30T18:48:57.497Z,6.20
2023-01-30T18:51:30.239Z,6.20
2023-01-30T18:54:00.027Z,6.30
2023-01-30T18:56:33.184Z,6.30
2023-01-30T18:59:05.404Z,6.20
2023-01-30T19:01:38.999Z,6.20
2023-01-30T19:04:08.332Z,6.20
2023-01-30T19:06:37.684Z,6.20
2023-01-30T19:09:05.619Z,6.20
2023-01-30T19:11:52.817Z,6.20
2023-01-30T19:14:19.714Z,6.10
2023-01-30T19:16:46.604Z,6.00
2023-01-30T19:19:13.612Z,6.00
2023-01-30T19:21:40.750Z,6.00
2023-01-30T19:24:11.998Z,6.00
2023-01-30T19:26:39.247Z,6.00
2023-01-30T19:29:06.522Z,6.00
2023-01-30T19:31:35.439Z,6.00
2023-01-30T19:34:06.560Z,6.00
2023-01-30T19:36:35.117Z,5.90
2023-01-30T19:39:03.703Z,5.90
2023-01-30T19:41:33.273Z,5.90
2023-01-30T19:44:01.969Z,5.90
2023-01-30T19:46:29.515Z,5.90
2023-01-30T19:48:56.828Z,5.90
2023-01-30T19:51:29.255Z,5.80
2023-01-30T19:54:05.045Z,5.90
2023-01-30T19:56:32.472Z,5.90
2023-01-30T19:59:00.897Z,5.80
2023-01-30T20:01:31.142Z,5.90
2023-01-30T20:03:59.069Z,5.80
2023-01-30T20:06:30.913Z,5.80
2023-01-30T20:09:02.714Z,5.80
2023-01-30T20:11:30.698Z,5.80
2023-01-30T20:13:59.174Z,5.80
2023-01-30T20:16:31.405Z,5.70
2023-01-30T20:19:00.872Z,5.60
2023-01-30T20:21:29.288Z,5.60
2023-01-30T20:23:57.145Z,5.50
2023-01-30T20:26:29.317Z,5.40
2023-01-30T20:28:56.775Z,5.40
2023-01-30T20:31:26.680Z,5.30
2023-01-30T20:33:56.038Z,5.30
2023-01-30T20:36:25.826Z,5.30
2023-01-30T20:38:53.600Z,5.20
2023-01-30T20:41:23.766Z,5.20
2023-01-30T20:43:57.395Z,5.10
2023-01-30T20:46:27.026Z,5.00
2023-01-30T20:48:55.584Z,4.90
2023-01-30T20:51:25.518Z,4.80
2023-01-30T20:54:01.722Z,4.70
2023-01-30T20:56:45.521Z,4.70
2023-01-30T20:59:16.125Z,4.60
2023-01-30T21:01:44.320Z,4.60
2023-01-30T21:04:14.455Z,4.60
2023-01-30T21:06:45.716Z,4.60
2023-01-30T21:09:19.087Z,4.60
2023-01-30T21:11:47.210Z,4.70
2023-01-30T21:14:15.101Z,4.70
2023-01-30T21:16:42.273Z,4.80
2023-01-30T21:19:15.192Z,4.80
2023-01-30T21:21:50.782Z,4.80
2023-01-30T21:24:24.255Z,4.80
2023-01-30T21:26:52.116Z,4.90
2023-01-30T21:29:21.340Z,4.90
2023-01-30T21:31:49.403Z,4.90
2023-01-30T21:34:16.496Z,4.90
2023-01-30T21:36:43.529Z,4.90
2023-01-30T21:39:32.640Z,4.90
2023-01-30T21:42:19.312Z,4.90
2023-01-30T21:44:47.040Z,4.90
2023-01-30T21:47:14.003Z,5.00
2023-01-30T21:49:44.014Z,4.90
2023-01-30T21:52:10.898Z,4.90
2023-01-30T21:54:38.235Z,5.00
2023-01-30T21:57:06.116Z,5.00
2023-01-30T21:59:33.460Z,5.00
2023-01-30T22:02:00.447Z,5.00
2023-01-30T22:04:27.511Z,5.00
2023-01-30T22:06:54.509Z,5.00
2023-01-30T22:09:21.487Z,5.00
2023-01-30T22:11:49.497Z,5.10
2023-01-30T22:14:16.426Z,5.10
2023-01-30T22:16:43.499Z,5.00
2023-01-30T22:19:11.581Z,5.00
2023-01-30T22:21:40.299Z,5.10
2023-01-30T22:24:08.815Z,5.00
2023-01-30T22:26:36.672Z,5.10
2023-01-30T22:29:05.360Z,5.10
2023-01-30T22:31:37.342Z,5.10
2023-01-30T22:34:05.077Z,5.10
2023-01-30T22:36:34.044Z,5.10
2023-01-30T22:39:01.569Z,5.10
2023-01-30T22:41:31.246Z,5.00
2023-01-30T22:43:59.835Z,5.00
2023-01-30T22:46:32.228Z,5.00
2023-01-30T22:49:00.384Z,5.00
2023-01-30T22:51:32.834Z,4.90
2023-01-30T22:54:02.231Z,4.90
2023-01-30T22:56:40.831Z,4.90
2023-01-30T22:59:08.843Z,4.90
2023-01-30T23:01:38.320Z,4.90
2023-01-30T23:04:08.116Z,4.80
2023-01-30T23:06:35.639Z,4.80
2023-01-30T23:09:04.372Z,4.80
2023-01-30T23:11:35.739Z,4.70
2023-01-30T23:14:20.754Z,4.60
2023-01-30T23:16:47.653Z,4.50
2023-01-30T23:19:14.605Z,4.50
2023-01-30T23:21:43.842Z,4.30
2023-01-30T23:24:14.204Z,4.20
2023-01-30T23:26:44.657Z,4.20
2023-01-30T23:29:13.939Z,4.10
2023-01-30T23:31:42.291Z,4.10
2023-01-30T23:34:17.917Z,4.10
2023-01-30T23:36:45.565Z,4.00
2023-01-30T23:39:13.557Z,4.00
2023-01-30T23:41:41.147Z,3.90
2023-01-30T23:44:08.572Z,3.80
2023-01-30T23:46:38.091Z,3.80
2023-01-30T23:49:07.599Z,3.80
2023-01-30T23:51:36.393Z,3.80
2023-01-30T23:54:03.802Z,3.80
2023-01-30T23:56:32.363Z,3.90
2023-01-30T23:58:59.436Z,3.90
